<?xml version="1.0" encoding="UTF-8" standalone="no" ?>
<gpx xmlns="http://www.topografix.com/GPX/1/1" xmlns:xsi="http://www.w3.org/2001/XMLSchema-instance" xsi:schemaLocation="http://www.topografix.com/GPX/1/1 http://www.topografix.com/GPX/1/1/gpx.xsd" version="1.1" creator="VisuGPX - https://www.visugpx.com">
  <metadata>
    <name>sigean le rieu et les sentiers de roquefort</name>
    <desc><![CDATA[il me manque la fin  car mon gps c'est arrêté............]]></desc>
  </metadata>
  <trk>
    <name><![CDATA[sigean le rieu et les sentiers de roquefort_11]]></name>
    <trkseg>
      <trkpt lat="43.0004" lon="2.94073">
        <ele>83.4</ele>
        <time>2020-06-03T13:59:40.000Z</time>
      </trkpt>
      <trkpt lat="43.00038" lon="2.94081">
        <ele>82.8</ele>
        <time>2020-06-03T13:59:41.000Z</time>
      </trkpt>
      <trkpt lat="43.00037" lon="2.94088">
        <ele>82.4</ele>
        <time>2020-06-03T13:59:42.000Z</time>
      </trkpt>
      <trkpt lat="43.00036" lon="2.94096">
        <ele>82</ele>
        <time>2020-06-03T13:59:43.000Z</time>
      </trkpt>
      <trkpt lat="43.00035" lon="2.94103">
        <ele>81.6</ele>
        <time>2020-06-03T13:59:44.000Z</time>
      </trkpt>
      <trkpt lat="43.00034" lon="2.9411">
        <ele>81.2</ele>
        <time>2020-06-03T13:59:45.000Z</time>
      </trkpt>
      <trkpt lat="43.0003" lon="2.94137">
        <ele>81.2</ele>
        <time>2020-06-03T13:59:49.000Z</time>
      </trkpt>
      <trkpt lat="43.00028" lon="2.94151">
        <ele>81.2</ele>
        <time>2020-06-03T13:59:51.000Z</time>
      </trkpt>
      <trkpt lat="43.00021" lon="2.94191">
        <ele>81.2</ele>
        <time>2020-06-03T13:59:56.000Z</time>
      </trkpt>
      <trkpt lat="43.00017" lon="2.94218">
        <ele>81.2</ele>
        <time>2020-06-03T13:59:59.000Z</time>
      </trkpt>
      <trkpt lat="43.00013" lon="2.94241">
        <ele>81.2</ele>
        <time>2020-06-03T14:00:02.000Z</time>
      </trkpt>
      <trkpt lat="43.00006" lon="2.94292">
        <ele>81.2</ele>
        <time>2020-06-03T14:00:09.000Z</time>
      </trkpt>
      <trkpt lat="43.00003" lon="2.94308">
        <ele>80.6</ele>
        <time>2020-06-03T14:00:11.000Z</time>
      </trkpt>
      <trkpt lat="43.00002" lon="2.94315">
        <ele>80.2</ele>
        <time>2020-06-03T14:00:12.000Z</time>
      </trkpt>
      <trkpt lat="43" lon="2.94321">
        <ele>79.8</ele>
        <time>2020-06-03T14:00:13.000Z</time>
      </trkpt>
      <trkpt lat="42.99998" lon="2.94325">
        <ele>79.4</ele>
        <time>2020-06-03T14:00:14.000Z</time>
      </trkpt>
      <trkpt lat="42.99997" lon="2.94327">
        <ele>79</ele>
        <time>2020-06-03T14:00:15.000Z</time>
      </trkpt>
      <trkpt lat="42.99997" lon="2.9433">
        <ele>79</ele>
        <time>2020-06-03T14:00:16.000Z</time>
      </trkpt>
      <trkpt lat="42.99999" lon="2.94334">
        <ele>79</ele>
        <time>2020-06-03T14:00:17.000Z</time>
      </trkpt>
      <trkpt lat="42.99937" lon="2.94264">
        <ele>56.6</ele>
      </trkpt>
      <trkpt lat="42.9988" lon="2.94238">
        <ele>56.5</ele>
      </trkpt>
      <trkpt lat="42.99832" lon="2.94329">
        <ele>55.9</ele>
      </trkpt>
      <trkpt lat="42.99806" lon="2.94433">
        <ele>54</ele>
      </trkpt>
      <trkpt lat="42.99768" lon="2.94489">
        <ele>53.4</ele>
      </trkpt>
      <trkpt lat="42.99723" lon="2.94492">
        <ele>54.1</ele>
      </trkpt>
      <trkpt lat="42.99694" lon="2.9469">
        <ele>52.2</ele>
      </trkpt>
      <trkpt lat="42.99616" lon="2.94723">
        <ele>53.9</ele>
      </trkpt>
      <trkpt lat="42.99528" lon="2.94898">
        <ele>53</ele>
      </trkpt>
      <trkpt lat="42.99292" lon="2.94947">
        <ele>53.5</ele>
      </trkpt>
      <trkpt lat="42.99223" lon="2.94983">
        <ele>54.6</ele>
      </trkpt>
      <trkpt lat="42.99119" lon="2.95022">
        <ele>54.8</ele>
      </trkpt>
      <trkpt lat="42.99076" lon="2.95051">
        <ele>55.3</ele>
      </trkpt>
      <trkpt lat="42.9904" lon="2.95149">
        <ele>55.7</ele>
      </trkpt>
      <trkpt lat="42.98997" lon="2.95243">
        <ele>58.5</ele>
      </trkpt>
      <trkpt lat="42.98962" lon="2.95328">
        <ele>65.5</ele>
      </trkpt>
      <trkpt lat="42.99047" lon="2.95311">
        <ele>60.6</ele>
      </trkpt>
      <trkpt lat="42.99138" lon="2.95318">
        <ele>56.1</ele>
      </trkpt>
      <trkpt lat="42.99195" lon="2.9535">
        <ele>54.2</ele>
      </trkpt>
      <trkpt lat="42.99271" lon="2.95315">
        <ele>50.8</ele>
      </trkpt>
      <trkpt lat="42.99468" lon="2.95341">
        <ele>49.4</ele>
      </trkpt>
      <trkpt lat="42.99544" lon="2.9536">
        <ele>49.3</ele>
      </trkpt>
      <trkpt lat="42.99621" lon="2.9535">
        <ele>48.6</ele>
      </trkpt>
      <trkpt lat="42.99666" lon="2.95442">
        <ele>46.9</ele>
      </trkpt>
      <trkpt lat="42.99678" lon="2.95484">
        <ele>45.6</ele>
      </trkpt>
      <trkpt lat="42.99687" lon="2.95529">
        <ele>45</ele>
      </trkpt>
      <trkpt lat="42.9968" lon="2.95607">
        <ele>45</ele>
      </trkpt>
      <trkpt lat="42.99854" lon="2.95803">
        <ele>42.1</ele>
      </trkpt>
      <trkpt lat="42.99889" lon="2.95903">
        <ele>42</ele>
      </trkpt>
      <trkpt lat="42.99896" lon="2.9604">
        <ele>41.6</ele>
      </trkpt>
      <trkpt lat="42.99923" lon="2.96095">
        <ele>40.8</ele>
      </trkpt>
      <trkpt lat="42.99968" lon="2.96154">
        <ele>40.6</ele>
      </trkpt>
      <trkpt lat="42.99996" lon="2.96219">
        <ele>41.2</ele>
      </trkpt>
      <trkpt lat="43.0007" lon="2.96342">
        <ele>38.2</ele>
      </trkpt>
    </trkseg>
  </trk>
</gpx>